createdAt,value
2023-02-14T00:02:06.488Z,-0.17
2023-02-14T00:04:43.138Z,-0.14
2023-02-14T00:07:15.548Z,-0.14
2023-02-14T00:09:48.028Z,-0.18
2023-02-14T00:12:20.440Z,-0.15
2023-02-14T00:15:11.384Z,-0.16
2023-02-14T00:17:44.400Z,-0.13
2023-02-14T00:20:17.164Z,-0.08
2023-02-14T00:22:49.804Z,-0.02
2023-02-14T00:25:22.247Z,0.06
2023-02-14T00:27:54.876Z,0.05
2023-02-14T00:30:27.467Z,0.09
2023-02-14T00:33:01.017Z,0.08
2023-02-14T00:35:37.387Z,0.05
2023-02-14T00:38:09.872Z,-0.19
2023-02-14T00:40:45.323Z,-0.14
2023-02-14T00:43:17.658Z,-0.16
2023-02-14T00:45:50.401Z,-0.09
2023-02-14T00:48:23.614Z,-0.06
2023-02-14T00:50:56.370Z,0.00
2023-02-14T00:53:28.903Z,0.07
2023-02-14T00:56:01.615Z,-0.07
2023-02-14T00:58:33.962Z,-0.07
2023-02-14T01:01:06.785Z,-0.04
2023-02-14T01:03:39.872Z,-0.04
2023-02-14T01:06:12.330Z,0.03
2023-02-14T01:08:44.805Z,0.07
2023-02-14T01:11:20.292Z,0.10
2023-02-14T01:13:55.088Z,0.03
2023-02-14T01:16:29.720Z,0.08
2023-02-14T01:19:02.832Z,0.07
2023-02-14T01:21:35.245Z,-0.05
2023-02-14T01:24:08.525Z,0.02
2023-02-14T01:26:41.046Z,0.04
2023-02-14T01:29:14.718Z,0.19
2023-02-14T01:31:48.578Z,0.24
2023-02-14T01:34:21.589Z,0.15
2023-02-14T01:36:53.994Z,0.19
2023-02-14T01:39:26.551Z,0.23
2023-02-14T01:41:58.951Z,0.23
2023-02-14T01:45:01.636Z,0.24
2023-02-14T01:47:39.425Z,0.27
2023-02-14T01:50:16.975Z,0.30
2023-02-14T01:52:54.530Z,0.05
2023-02-14T01:55:30.259Z,-0.12
2023-02-14T01:58:09.045Z,0.02
2023-02-14T02:00:58.894Z,0.09
2023-02-14T02:03:34.378Z,0.19
2023-02-14T02:06:12.835Z,0.21
2023-02-14T02:08:51.983Z,0.23
2023-02-14T02:11:25.246Z,0.25
2023-02-14T02:13:57.688Z,0.31
2023-02-14T02:16:58.157Z,0.26
2023-02-14T02:20:02.747Z,0.12
2023-02-14T02:23:09.258Z,0.13
2023-02-14T02:26:09.289Z,0.15
2023-02-14T02:29:09.414Z,0.18
2023-02-14T02:32:11.624Z,0.20
2023-02-14T02:35:15.767Z,0.23
2023-02-14T02:38:03.315Z,0.30
2023-02-14T02:40:46.560Z,-0.10
2023-02-14T02:43:33.205Z,0.13
2023-02-14T02:46:29.929Z,0.13
2023-02-14T02:49:08.486Z,0.17
2023-02-14T02:52:06.716Z,0.21
2023-02-14T02:54:44.419Z,0.20
2023-02-14T02:57:26.418Z,0.25
2023-02-14T03:00:04.387Z,0.31
2023-02-14T03:02:55.020Z,0.34
2023-02-14T03:05:29.164Z,0.34
2023-02-14T03:08:03.173Z,0.35
2023-02-14T03:10:39.290Z,0.31
2023-02-14T03:13:39.152Z,0.43
2023-02-14T03:16:28.020Z,0.48
2023-02-14T03:19:50.849Z,0.45
2023-02-14T03:22:35.637Z,0.43
2023-02-14T03:25:20.782Z,0.37
2023-02-14T03:27:58.720Z,0.34
2023-02-14T03:30:41.453Z,0.31
2023-02-14T03:33:22.053Z,0.37
2023-02-14T03:36:01.633Z,0.29
2023-02-14T03:38:42.974Z,0.31
2023-02-14T03:41:22.240Z,0.35
2023-02-14T03:43:59.118Z,0.35
2023-02-14T03:46:35.949Z,0.43
2023-02-14T03:49:13.358Z,0.47
2023-02-14T03:51:48.953Z,0.50
2023-02-14T03:54:23.122Z,0.31
2023-02-14T03:57:04.430Z,0.27
2023-02-14T03:59:37.012Z,0.32
2023-02-14T04:02:14.431Z,0.36
2023-02-14T04:04:49.818Z,0.45
2023-02-14T04:07:24.142Z,0.46
2023-02-14T04:09:56.680Z,0.42
2023-02-14T04:12:37.671Z,0.07
2023-02-14T04:15:11.609Z,0.20
2023-02-14T04:18:01.836Z,0.28
2023-02-14T04:20:34.271Z,0.32
2023-02-14T04:23:06.649Z,0.36
2023-02-14T04:25:39.705Z,0.40
2023-02-14T04:28:13.291Z,0.43
2023-02-14T04:30:45.628Z,0.43
2023-02-14T04:33:17.998Z,0.39
2023-02-14T04:35:50.383Z,0.19
2023-02-14T04:38:22.841Z,0.27
2023-02-14T04:40:55.195Z,0.29
2023-02-14T04:43:28.285Z,0.33
2023-02-14T04:46:01.023Z,0.34
2023-02-14T04:48:33.371Z,0.22
2023-02-14T04:51:06.152Z,0.29
2023-02-14T04:53:39.667Z,0.33
2023-02-14T04:56:11.951Z,0.39
2023-02-14T04:58:45.193Z,0.34
2023-02-14T05:01:17.566Z,0.33
2023-02-14T05:03:49.956Z,0.17
2023-02-14T05:06:22.565Z,0.11
2023-02-14T05:08:55.497Z,0.05
2023-02-14T05:11:28.419Z,0.13
2023-02-14T05:14:01.517Z,0.22
2023-02-14T05:16:33.931Z,-0.21
2023-02-14T05:19:06.697Z,0.05
2023-02-14T05:21:39.048Z,0.18
2023-02-14T05:24:11.721Z,0.24
2023-02-14T05:26:44.205Z,0.26
2023-02-14T05:29:17.272Z,0.26
2023-02-14T05:31:49.764Z,0.30
2023-02-14T05:34:22.179Z,0.08
2023-02-14T05:36:54.593Z,0.18
2023-02-14T05:39:27.006Z,0.18
2023-02-14T05:41:59.512Z,0.05
2023-02-14T05:44:32.692Z,0.21
2023-02-14T05:47:05.131Z,0.22
2023-02-14T05:49:37.591Z,0.16
2023-02-14T05:52:10.231Z,0.19
2023-02-14T05:54:42.740Z,0.26
2023-02-14T05:57:15.343Z,0.23
2023-02-14T05:59:48.618Z,0.22
2023-02-14T06:02:21.161Z,0.24
2023-02-14T06:04:53.597Z,0.12
2023-02-14T06:07:26.100Z,0.24
2023-02-14T06:09:58.448Z,0.28
2023-02-14T06:12:31.398Z,0.25
2023-02-14T06:15:05.178Z,0.35
2023-02-14T06:17:37.862Z,0.30
2023-02-14T06:20:11.344Z,0.31
2023-02-14T06:22:43.997Z,0.33
2023-02-14T06:25:17.144Z,0.42
2023-02-14T06:27:49.725Z,0.48
2023-02-14T06:30:23.054Z,0.36
2023-02-14T06:32:55.592Z,0.50
2023-02-14T06:35:28.047Z,0.43
2023-02-14T06:38:00.430Z,0.06
2023-02-14T06:40:32.862Z,0.31
2023-02-14T06:43:05.265Z,0.40
2023-02-14T06:45:38.250Z,0.44
2023-02-14T06:48:10.846Z,0.34
2023-02-14T06:50:43.213Z,0.39
2023-02-14T06:53:16.021Z,0.48
2023-02-14T06:55:48.615Z,0.45
2023-02-14T06:58:21.034Z,0.06
2023-02-14T07:00:55.303Z,-0.07
2023-02-14T07:03:27.770Z,0.24
2023-02-14T07:06:00.162Z,0.28
2023-02-14T07:08:32.907Z,0.38
2023-02-14T07:11:05.434Z,0.15
2023-02-14T07:13:37.784Z,0.30
2023-02-14T07:16:10.881Z,0.42
2023-02-14T07:18:43.269Z,0.45
2023-02-14T07:21:16.079Z,0.37
2023-02-14T07:23:49.595Z,0.49
2023-02-14T07:26:21.896Z,0.56
2023-02-14T07:28:54.223Z,0.63
2023-02-14T07:31:27.459Z,0.64
2023-02-14T07:34:00.195Z,0.57
2023-02-14T07:36:33.784Z,0.59
2023-02-14T07:39:06.487Z,0.66
2023-02-14T07:41:38.886Z,0.71
2023-02-14T07:44:15.366Z,0.78
2023-02-14T07:46:48.351Z,0.87
2023-02-14T07:49:20.980Z,0.76
2023-02-14T07:51:53.338Z,0.76
2023-02-14T07:54:29.561Z,0.84
2023-02-14T07:57:01.908Z,0.77
2023-02-14T07:59:34.314Z,0.59
2023-02-14T08:02:09.090Z,0.53
2023-02-14T08:04:41.462Z,0.38
2023-02-14T08:07:13.859Z,0.60
2023-02-14T08:09:46.184Z,0.70
2023-02-14T08:12:36.761Z,0.70
2023-02-14T08:15:27.446Z,0.66
2023-02-14T08:18:00.974Z,0.72
2023-02-14T08:20:33.297Z,0.82
2023-02-14T08:23:05.804Z,0.74
2023-02-14T08:25:38.500Z,0.56
2023-02-14T08:28:12.659Z,0.77
2023-02-14T08:30:45.511Z,0.83
2023-02-14T08:33:18.894Z,0.80
2023-02-14T08:35:51.880Z,0.82
2023-02-14T08:38:24.478Z,0.68
2023-02-14T08:40:59.832Z,0.73
2023-02-14T08:43:34.290Z,0.84
2023-02-14T08:46:06.863Z,0.88
2023-02-14T08:48:40.103Z,0.91
2023-02-14T08:51:14.272Z,0.89
2023-02-14T08:53:49.708Z,0.86
2023-02-14T08:56:22.066Z,0.86
2023-02-14T08:58:54.631Z,0.79
2023-02-14T09:01:28.319Z,0.80
2023-02-14T09:04:01.846Z,0.82
2023-02-14T09:06:37.800Z,0.93
2023-02-14T09:09:10.354Z,1.07
2023-02-14T09:11:43.150Z,1.15
2023-02-14T09:14:15.906Z,1.19
2023-02-14T09:16:48.325Z,1.24
2023-02-14T09:19:21.454Z,1.25
2023-02-14T09:21:53.897Z,1.23
2023-02-14T09:24:27.052Z,1.00
2023-02-14T09:26:59.598Z,1.02
2023-02-14T09:29:33.834Z,0.90
2023-02-14T09:32:06.306Z,0.87
2023-02-14T09:34:39.544Z,0.94
2023-02-14T09:37:31.379Z,1.00
2023-02-14T09:40:04.910Z,0.85
2023-02-14T09:42:45.695Z,0.74
2023-02-14T09:45:21.376Z,0.46
2023-02-14T09:47:59.126Z,0.65
2023-02-14T09:50:36.841Z,0.59
2023-02-14T09:53:21.007Z,0.39
2023-02-14T09:56:02.173Z,0.58
2023-02-14T09:58:40.474Z,0.72
2023-02-14T10:01:16.951Z,0.54
2023-02-14T10:04:04.866Z,0.52
2023-02-14T10:06:50.193Z,0.45
2023-02-14T10:09:43.349Z,0.48
2023-02-14T10:12:22.421Z,0.55
2023-02-14T10:14:59.890Z,0.51
2023-02-14T10:17:40.698Z,0.64
2023-02-14T10:20:25.261Z,0.60
2023-02-14T10:23:05.287Z,0.67
2023-02-14T10:25:45.091Z,0.68
2023-02-14T10:28:24.516Z,0.60
2023-02-14T10:31:15.825Z,0.55
2023-02-14T10:33:57.369Z,0.68
2023-02-14T10:36:43.882Z,0.78
2023-02-14T10:39:32.992Z,0.66
2023-02-14T10:42:19.048Z,0.32
2023-02-14T10:45:01.781Z,0.59
2023-02-14T10:47:44.450Z,0.43
2023-02-14T10:50:21.753Z,-0.01
2023-02-14T10:53:07.921Z,0.22
2023-02-14T10:55:47.129Z,0.37
2023-02-14T10:58:22.271Z,0.52
2023-02-14T11:01:01.890Z,0.52
2023-02-14T11:03:37.905Z,0.65
2023-02-14T11:06:10.708Z,0.69
2023-02-14T11:08:43.322Z,0.77
2023-02-14T11:11:23.912Z,0.61
2023-02-14T11:13:56.310Z,0.57
2023-02-14T11:16:31.180Z,0.56
2023-02-14T11:19:10.539Z,0.56
2023-02-14T11:21:44.954Z,0.60
2023-02-14T11:24:24.851Z,0.43
2023-02-14T11:27:01.497Z,0.55
2023-02-14T11:29:42.429Z,0.71
2023-02-14T11:32:20.910Z,0.85
2023-02-14T11:34:57.330Z,0.94
2023-02-14T11:37:33.192Z,1.06
2023-02-14T11:40:07.485Z,1.17
2023-02-14T11:42:44.037Z,1.22
2023-02-14T11:45:32.127Z,1.17
2023-02-14T11:48:19.694Z,1.13
2023-02-14T11:51:00.780Z,1.12
2023-02-14T11:53:43.708Z,1.14
2023-02-14T11:56:17.891Z,1.14
2023-02-14T11:58:56.002Z,0.64
2023-02-14T12:01:31.003Z,0.60
2023-02-14T12:04:11.758Z,0.47
2023-02-14T12:06:45.267Z,0.35
2023-02-14T12:09:27.070Z,0.49
2023-02-14T12:12:02.324Z,0.58
2023-02-14T12:14:35.917Z,0.47
2023-02-14T12:17:29.147Z,0.69
2023-02-14T12:20:08.907Z,0.26
2023-02-14T12:22:46.208Z,0.59
2023-02-14T12:25:22.105Z,0.76
2023-02-14T12:28:01.082Z,0.85
2023-02-14T12:30:35.099Z,0.72
2023-02-14T12:33:17.697Z,0.86
2023-02-14T12:35:59.416Z,0.57
2023-02-14T12:38:43.704Z,0.40
2023-02-14T12:41:29.893Z,0.54
2023-02-14T12:44:07.018Z,0.64
2023-02-14T12:47:04.632Z,0.76
2023-02-14T12:50:18.378Z,0.87
2023-02-14T12:53:06.705Z,0.94
2023-02-14T12:55:56.604Z,0.96
2023-02-14T12:58:46.247Z,1.01
2023-02-14T13:01:49.423Z,1.16
2023-02-14T13:04:57.602Z,1.24
2023-02-14T13:07:45.531Z,1.32
2023-02-14T13:10:31.410Z,1.23
2023-02-14T13:13:09.792Z,1.36
2023-02-14T13:15:53.051Z,1.10
2023-02-14T13:18:37.807Z,0.90
2023-02-14T13:21:13.984Z,0.92
2023-02-14T13:23:49.366Z,0.98
2023-02-14T13:26:27.286Z,0.97
2023-02-14T13:29:03.591Z,1.14
2023-02-14T13:31:37.497Z,1.26
2023-02-14T13:34:23.363Z,1.26
2023-02-14T13:36:58.039Z,1.15
2023-02-14T13:39:38.544Z,1.11
2023-02-14T13:42:12.328Z,0.80
2023-02-14T13:44:48.336Z,0.94
2023-02-14T13:47:22.958Z,1.05
2023-02-14T13:49:57.520Z,0.94
2023-02-14T13:52:41.422Z,0.88
2023-02-14T13:55:18.697Z,0.99
2023-02-14T13:58:02.692Z,1.15
2023-02-14T14:00:40.532Z,1.26
2023-02-14T14:03:14.885Z,1.33
2023-02-14T14:06:05.860Z,1.37
2023-02-14T14:08:47.769Z,1.28
2023-02-14T14:11:59.956Z,1.38
2023-02-14T14:14:39.059Z,1.42
2023-02-14T14:17:22.368Z,1.41
2023-02-14T14:19:54.802Z,1.45
2023-02-14T14:22:28.460Z,1.46
2023-02-14T14:25:04.531Z,1.55
2023-02-14T14:27:42.401Z,1.46
2023-02-14T14:30:20.966Z,1.44
2023-02-14T14:32:53.547Z,1.43
2023-02-14T14:35:25.970Z,1.47
2023-02-14T14:38:00.966Z,1.41
2023-02-14T14:40:35.938Z,1.44
2023-02-14T14:43:14.004Z,1.49
2023-02-14T14:45:48.745Z,1.51
2023-02-14T14:48:29.493Z,1.50
2023-02-14T14:51:04.167Z,1.50
2023-02-14T14:53:43.966Z,1.55
2023-02-14T14:56:19.486Z,1.56
2023-02-14T14:58:52.536Z,1.50
2023-02-14T15:01:31.700Z,1.45
2023-02-14T15:04:15.363Z,1.49
2023-02-14T15:06:49.082Z,1.37
2023-02-14T15:09:24.087Z,1.32
2023-02-14T15:12:17.191Z,1.43
2023-02-14T15:14:53.850Z,1.35
2023-02-14T15:17:29.189Z,1.31
2023-02-14T15:20:05.003Z,1.36
2023-02-14T15:22:42.167Z,0.99
2023-02-14T15:25:19.755Z,1.13
2023-02-14T15:27:52.375Z,0.97
2023-02-14T15:30:30.066Z,1.09
2023-02-14T15:33:04.603Z,0.82
2023-02-14T15:35:41.547Z,0.76
2023-02-14T15:38:14.698Z,0.71
2023-02-14T15:40:47.418Z,0.81
2023-02-14T15:43:26.928Z,0.75
2023-02-14T15:46:15.288Z,0.90
2023-02-14T15:48:48.353Z,0.82
2023-02-14T15:51:22.506Z,0.92
2023-02-14T15:53:57.539Z,0.80
2023-02-14T15:56:33.520Z,0.62
2023-02-14T15:59:12.272Z,0.61
2023-02-14T16:01:52.068Z,0.65
2023-02-14T16:04:25.890Z,0.78
2023-02-14T16:07:21.128Z,0.70
2023-02-14T16:10:19.662Z,0.57
2023-02-14T16:12:58.898Z,0.60
2023-02-14T16:15:32.468Z,0.56
2023-02-14T16:18:17.911Z,0.40
2023-02-14T16:20:50.967Z,0.55
2023-02-14T16:23:26.797Z,0.56
2023-02-14T16:25:59.104Z,0.61
2023-02-14T16:28:32.604Z,0.53
2023-02-14T16:31:09.707Z,0.49
2023-02-14T16:33:42.231Z,0.53
2023-02-14T16:36:19.400Z,0.50
2023-02-14T16:38:52.716Z,0.43
2023-02-14T16:41:26.936Z,0.61
2023-02-14T16:44:00.125Z,0.69
2023-02-14T16:46:35.763Z,0.74
2023-02-14T16:49:08.395Z,0.65
2023-02-14T16:51:44.748Z,0.59
2023-02-14T16:54:19.640Z,0.73
2023-02-14T16:56:55.180Z,0.82
2023-02-14T16:59:27.660Z,0.93
2023-02-14T17:02:00.458Z,0.92
2023-02-14T17:04:32.892Z,0.94
2023-02-14T17:07:06.826Z,1.02
2023-02-14T17:09:42.557Z,1.12
2023-02-14T17:12:19.904Z,1.10
2023-02-14T17:14:56.734Z,1.15
2023-02-14T17:17:29.765Z,1.14
2023-02-14T17:20:04.180Z,1.20
2023-02-14T17:22:37.632Z,1.24
2023-02-14T17:25:10.875Z,1.29
2023-02-14T17:27:43.879Z,1.40
2023-02-14T17:30:17.153Z,1.51
2023-02-14T17:32:49.535Z,1.56
2023-02-14T17:35:22.206Z,1.55
2023-02-14T17:37:55.273Z,1.50
2023-02-14T17:40:28.046Z,1.47
2023-02-14T17:43:01.107Z,1.49
2023-02-14T17:45:33.526Z,1.60
2023-02-14T17:48:06.015Z,1.75
2023-02-14T17:50:38.410Z,1.83
2023-02-14T17:53:11.895Z,1.84
2023-02-14T17:55:45.008Z,1.87
2023-02-14T17:58:17.394Z,1.75
2023-02-14T18:00:49.855Z,1.43
2023-02-14T18:03:22.220Z,1.52
2023-02-14T18:05:56.740Z,1.64
2023-02-14T18:08:31.560Z,1.69
2023-02-14T18:11:05.034Z,1.62
2023-02-14T18:13:38.659Z,1.66
2023-02-14T18:16:14.317Z,1.80
2023-02-14T18:18:47.078Z,1.85
2023-02-14T18:21:20.629Z,1.85
2023-02-14T18:23:53.767Z,1.87
2023-02-14T18:26:26.728Z,1.87
2023-02-14T18:29:05.712Z,1.91
2023-02-14T18:31:40.236Z,1.92
2023-02-14T18:34:12.890Z,1.81
2023-02-14T18:36:45.365Z,1.87
2023-02-14T18:39:19.303Z,1.93
2023-02-14T18:41:51.901Z,1.94
2023-02-14T18:44:28.005Z,1.85
2023-02-14T18:47:01.201Z,1.93
2023-02-14T18:49:33.705Z,1.87
2023-02-14T18:52:06.355Z,1.82
2023-02-14T18:54:39.740Z,1.77
2023-02-14T18:57:12.249Z,1.42
2023-02-14T18:59:44.786Z,1.59
2023-02-14T19:02:17.272Z,1.67
2023-02-14T19:04:49.731Z,1.70
2023-02-14T19:07:22.140Z,1.74
2023-02-14T19:09:55.487Z,1.78
2023-02-14T19:12:30.460Z,1.56
2023-02-14T19:15:02.921Z,1.56
2023-02-14T19:17:37.482Z,1.58
2023-02-14T19:20:11.915Z,1.67
2023-02-14T19:22:44.314Z,1.67
2023-02-14T19:25:17.519Z,1.50
2023-02-14T19:27:50.488Z,1.65
2023-02-14T19:30:23.038Z,1.71
2023-02-14T19:32:55.529Z,1.58
2023-02-14T19:35:27.866Z,1.60
2023-02-14T19:38:02.774Z,1.54
2023-02-14T19:40:35.809Z,1.54
2023-02-14T19:43:08.378Z,1.52
2023-02-14T19:45:40.955Z,1.59
2023-02-14T19:48:13.660Z,1.61
2023-02-14T19:50:46.019Z,1.28
2023-02-14T19:53:18.715Z,1.47
2023-02-14T19:55:52.066Z,1.39
2023-02-14T19:58:25.372Z,1.33
2023-02-14T20:00:59.862Z,1.15
2023-02-14T20:03:35.021Z,1.27
2023-02-14T20:06:07.922Z,1.23
2023-02-14T20:08:40.328Z,1.16
2023-02-14T20:11:24.577Z,1.22
2023-02-14T20:13:57.736Z,1.15
2023-02-14T20:16:32.738Z,1.24
2023-02-14T20:19:07.629Z,1.19
2023-02-14T20:21:41.348Z,1.31
2023-02-14T20:24:16.745Z,1.41
2023-02-14T20:26:51.437Z,1.35
2023-02-14T20:29:25.748Z,1.36
2023-02-14T20:32:00.957Z,1.24
2023-02-14T20:34:33.469Z,1.38
2023-02-14T20:37:06.157Z,1.34
2023-02-14T20:39:38.649Z,1.40
2023-02-14T20:42:11.659Z,1.50
2023-02-14T20:44:45.077Z,1.52
2023-02-14T20:47:17.448Z,1.31
2023-02-14T20:49:50.088Z,1.41
2023-02-14T20:52:22.506Z,1.44
2023-02-14T20:54:54.882Z,1.38
2023-02-14T20:57:29.500Z,1.36
2023-02-14T21:00:01.943Z,1.36
2023-02-14T21:02:34.491Z,1.34
2023-02-14T21:05:07.052Z,1.24
2023-02-14T21:07:39.352Z,1.24
2023-02-14T21:10:11.810Z,1.31
2023-02-14T21:12:44.811Z,1.10
2023-02-14T21:15:19.296Z,1.15
2023-02-14T21:17:51.614Z,1.21
2023-02-14T21:20:24.328Z,1.24
2023-02-14T21:22:56.708Z,1.29
2023-02-14T21:25:30.747Z,1.34
2023-02-14T21:28:03.818Z,1.28
2023-02-14T21:30:36.186Z,1.27
2023-02-14T21:33:08.544Z,0.90
2023-02-14T21:35:41.151Z,0.98
2023-02-14T21:38:13.622Z,1.11
2023-02-14T21:40:46.043Z,1.13
2023-02-14T21:43:19.036Z,1.27
2023-02-14T21:45:53.899Z,1.34
2023-02-14T21:48:44.445Z,1.37
2023-02-14T21:51:17.277Z,1.39
2023-02-14T21:53:49.842Z,1.45
2023-02-14T21:56:23.175Z,1.34
2023-02-14T21:58:56.566Z,1.26
2023-02-14T22:01:31.730Z,1.16
2023-02-14T22:04:07.028Z,1.26
2023-02-14T22:06:41.296Z,0.98
2023-02-14T22:09:14.298Z,1.14
2023-02-14T22:11:47.117Z,1.10
2023-02-14T22:14:20.152Z,1.05
2023-02-14T22:16:52.504Z,1.11
2023-02-14T22:19:24.822Z,1.20
2023-02-14T22:21:57.259Z,1.21
2023-02-14T22:24:29.601Z,1.19
2023-02-14T22:27:01.990Z,1.13
2023-02-14T22:29:35.522Z,1.03
2023-02-14T22:32:08.327Z,0.75
2023-02-14T22:34:40.795Z,0.75
2023-02-14T22:37:13.124Z,0.93
2023-02-14T22:39:45.545Z,0.84
2023-02-14T22:42:18.066Z,0.89
2023-02-14T22:44:51.183Z,0.94
2023-02-14T22:47:23.518Z,0.83
2023-02-14T22:49:56.039Z,0.77
2023-02-14T22:52:28.360Z,0.87
2023-02-14T22:55:01.003Z,0.87
2023-02-14T22:57:33.379Z,0.92
2023-02-14T23:00:10.953Z,0.88
2023-02-14T23:02:43.364Z,0.99
2023-02-14T23:05:16.420Z,0.86
2023-02-14T23:07:48.739Z,0.87
2023-02-14T23:10:21.141Z,0.83
2023-02-14T23:13:11.816Z,0.83
2023-02-14T23:16:03.604Z,0.96
2023-02-14T23:18:54.411Z,0.78
2023-02-14T23:21:50.526Z,0.84
2023-02-14T23:24:23.796Z,0.86
2023-02-14T23:26:56.224Z,0.88
2023-02-14T23:29:28.798Z,0.70
2023-02-14T23:32:01.916Z,0.62
2023-02-14T23:34:36.371Z,0.63
2023-02-14T23:37:10.228Z,0.69
2023-02-14T23:39:42.594Z,0.89
2023-02-14T23:42:15.442Z,0.94
2023-02-14T23:44:48.388Z,0.85
2023-02-14T23:47:21.434Z,0.84
2023-02-14T23:49:53.880Z,0.70
2023-02-14T23:52:26.286Z,0.85
2023-02-14T23:54:58.627Z,0.64
2023-02-14T23:57:31.062Z,0.79
